KDRO/DRO METAR and TAF weather

Enter ICAO airport designator
Station Type Date Time Source
KDRO METAR 2021/09/24 05:53 UTC NOAA

KDRO 240553Z AUTO 00000KT 10SM FEW120 13/M03 A3020 RMK AO2 SLP147 T01331033 10239 20122 51009


Station Type Date Time Source
KDRO Decoded METAR 2021/09/24 05:53 UTC NOAA

DURANGO-LA PLATA COUNTY AIRPORT , CO, United States (KDRO) 37-09N 107-46W 2035M
Sep 24, 2021 - 01:53 AM EDT / 2021.09.24 0553 UTC
Wind: Calm:0
Visibility: 10 mile(s):0
Sky conditions: mostly clear
Temperature: 55.9 F (13.3 C)
Dew Point: 26.1 F (-3.3 C)
Relative Humidity: 31%
Pressure (altimeter): 30.2 in. Hg (1022 hPa)
Pressure tendency: 0.03 inches (0.9 hPa) higher than three hours ago
ob: KDRO 240553Z AUTO 00000KT 10SM FEW120 13/M03 A3020 RMK AO2 SLP147 T01331033 10239 20122 51009
cycle: 6

Station Type Date Time Source
KDRO TAF 2021/09/24 06:30 UTC NOAA

TAF KDRO 240528Z 2406/2506 VRB03KT P6SM FEW150 BKN200
FM241800 21004KT P6SM FEW250
FM242000 25009G16KT P6SM FEW250
FM250200 31006KT P6SM SKC

Example: see airport list